createdAt,value
2022-11-29T00:01:28.701Z,99589.25
2022-11-29T00:04:30.129Z,99583.84
2022-11-29T00:07:31.568Z,99582.75
2022-11-29T00:10:36.847Z,99578.91
2022-11-29T00:13:38.399Z,99586.75
2022-11-29T00:16:41.074Z,99583.53
2022-11-29T00:19:42.606Z,99579.28
2022-11-29T00:22:44.048Z,99575.72
2022-11-29T00:25:45.511Z,99569.66
2022-11-29T00:28:46.999Z,99569.50
2022-11-29T00:31:48.408Z,99569.63
2022-11-29T00:34:49.781Z,99573.13
2022-11-29T00:37:51.162Z,99571.63
2022-11-29T00:40:52.832Z,99575.13
2022-11-29T00:43:54.608Z,99575.78
2022-11-29T00:46:56.022Z,99578.53
2022-11-29T00:49:57.439Z,99575.25
2022-11-29T00:52:58.822Z,99579.03
2022-11-29T00:56:00.507Z,99571.75
2022-11-29T00:59:01.934Z,99581.78
2022-11-29T01:02:03.606Z,99576.53
2022-11-29T01:05:05.414Z,99577.47
2022-11-29T01:08:06.924Z,99583.13
2022-11-29T01:11:13.062Z,99584.22
2022-11-29T01:14:14.528Z,99586.28
2022-11-29T01:17:15.978Z,99583.13
2022-11-29T01:20:17.470Z,99585.88
2022-11-29T01:23:18.874Z,99591.44
2022-11-29T01:26:26.032Z,99591.88
2022-11-29T01:29:27.407Z,99588.72
2022-11-29T01:32:28.872Z,99587.34
2022-11-29T01:35:30.277Z,99585.81
2022-11-29T01:38:31.927Z,99585.69
2022-11-29T01:41:35.355Z,99591.72
2022-11-29T01:44:36.683Z,99588.97
2022-11-29T01:47:43.676Z,99598.03
2022-11-29T01:50:45.214Z,99594.09
2022-11-29T01:53:47.007Z,99592.31
2022-11-29T01:56:50.615Z,99598.31
2022-11-29T01:59:58.020Z,99582.66
2022-11-29T02:03:12.317Z,99580.88
2022-11-29T02:06:15.688Z,99590.09
2022-11-29T02:09:22.629Z,99583.88
2022-11-29T02:12:45.980Z,99577.84
2022-11-29T02:16:15.723Z,99577.44
2022-11-29T02:19:53.291Z,99572.63
2022-11-29T02:23:23.383Z,99567.81
2022-11-29T02:26:43.482Z,99564.00
2022-11-29T02:30:29.088Z,99562.22
2022-11-29T02:33:52.256Z,99563.31
2022-11-29T02:37:22.517Z,99561.38
2022-11-29T02:41:01.524Z,99568.66
2022-11-29T02:44:26.899Z,99573.63
2022-11-29T02:47:53.906Z,99574.00
2022-11-29T02:51:05.411Z,99570.56
2022-11-29T02:54:20.400Z,99581.16
2022-11-29T02:57:36.575Z,99572.50
2022-11-29T03:00:47.981Z,99576.06
2022-11-29T03:04:15.217Z,99577.28
2022-11-29T03:07:28.728Z,99585.81
2022-11-29T03:10:48.162Z,99583.75
2022-11-29T03:14:21.798Z,99588.03
2022-11-29T03:17:48.285Z,99588.97
2022-11-29T03:21:05.128Z,99592.56
2022-11-29T03:24:16.020Z,99589.53
2022-11-29T03:27:28.465Z,99596.97
2022-11-29T03:30:32.235Z,99600.53
2022-11-29T03:33:47.096Z,99598.84
2022-11-29T03:37:19.907Z,99599.16
2022-11-29T03:40:25.251Z,99597.19
2022-11-29T03:43:36.701Z,99612.47
2022-11-29T03:46:47.739Z,99607.91
2022-11-29T03:49:59.543Z,99607.38
2022-11-29T03:53:12.737Z,99605.31
2022-11-29T03:56:31.906Z,99606.56
2022-11-29T03:59:45.587Z,99611.34
2022-11-29T04:02:56.471Z,99609.03
2022-11-29T04:06:18.063Z,99614.69
2022-11-29T04:09:46.472Z,99613.41
2022-11-29T04:13:12.670Z,99622.91
2022-11-29T04:16:39.012Z,99618.06
2022-11-29T04:20:18.104Z,99622.44
2022-11-29T04:23:38.729Z,99620.53
2022-11-29T04:27:01.673Z,99627.53
2022-11-29T04:30:18.297Z,99630.59
2022-11-29T04:33:32.726Z,99634.28
2022-11-29T04:36:34.057Z,99629.06
2022-11-29T04:39:51.542Z,99640.06
2022-11-29T04:43:11.404Z,99638.94
2022-11-29T04:46:54.342Z,99645.00
2022-11-29T04:50:02.765Z,99645.28
2022-11-29T04:53:23.891Z,99646.50
2022-11-29T04:56:46.503Z,99647.06
2022-11-29T04:59:52.499Z,99648.31
2022-11-29T05:03:38.731Z,99657.63
2022-11-29T05:07:02.126Z,99665.63
2022-11-29T05:10:17.891Z,99671.25
2022-11-29T05:13:38.915Z,99670.41
2022-11-29T05:17:04.205Z,99662.59
2022-11-29T05:20:27.065Z,99675.09
2022-11-29T05:23:54.772Z,99678.66
2022-11-29T05:27:35.226Z,99674.38
2022-11-29T05:31:06.429Z,99677.72
2022-11-29T05:34:34.914Z,99672.47
2022-11-29T05:37:50.385Z,99670.56
2022-11-29T05:41:29.265Z,99676.88
2022-11-29T05:44:38.481Z,99674.41
2022-11-29T05:47:48.932Z,99679.47
2022-11-29T05:51:06.235Z,99670.00
2022-11-29T05:54:13.801Z,99684.41
2022-11-29T05:57:49.036Z,99685.66
2022-11-29T06:01:27.948Z,99691.31
2022-11-29T06:04:41.183Z,99696.50
2022-11-29T06:08:08.051Z,99696.66
2022-11-29T06:11:24.067Z,99696.91
2022-11-29T06:14:47.237Z,99704.34
2022-11-29T06:18:07.010Z,99699.38
2022-11-29T06:21:46.252Z,99695.25
2022-11-29T06:25:18.528Z,99701.88
2022-11-29T06:28:45.428Z,99707.34
2022-11-29T06:31:53.256Z,99711.75
2022-11-29T06:35:03.539Z,99709.53
2022-11-29T06:38:20.493Z,99718.06
2022-11-29T06:41:23.690Z,99712.84
2022-11-29T06:44:25.378Z,99713.38
2022-11-29T06:47:42.470Z,99718.88
2022-11-29T06:50:56.963Z,99724.63
2022-11-29T06:54:36.111Z,99722.97
2022-11-29T06:57:49.287Z,99734.00
2022-11-29T07:01:00.869Z,99737.44
2022-11-29T07:04:15.342Z,99743.59
2022-11-29T07:07:22.503Z,99737.00
2022-11-29T07:10:24.726Z,99745.81
2022-11-29T07:13:26.396Z,99741.97
2022-11-29T07:16:33.917Z,99750.19
2022-11-29T07:19:53.762Z,99750.34
2022-11-29T07:23:21.206Z,99748.25
2022-11-29T07:26:33.920Z,99753.47
2022-11-29T07:29:41.353Z,99755.41
2022-11-29T07:33:21.559Z,99759.63
2022-11-29T07:36:45.081Z,99759.53
2022-11-29T07:40:03.358Z,99760.34
2022-11-29T07:43:20.212Z,99761.16
2022-11-29T07:46:21.651Z,99769.97
2022-11-29T07:49:23.074Z,99761.56
2022-11-29T07:52:26.867Z,99763.81
2022-11-29T07:55:29.568Z,99773.41
2022-11-29T07:58:31.042Z,99767.19
2022-11-29T08:01:32.510Z,99768.03
2022-11-29T08:04:34.054Z,99774.94
2022-11-29T08:07:40.508Z,99779.03
2022-11-29T08:10:41.968Z,99784.34
2022-11-29T08:13:43.360Z,99778.75
2022-11-29T08:16:44.780Z,99776.44
2022-11-29T08:19:46.300Z,99785.09
2022-11-29T08:22:58.944Z,99787.03
2022-11-29T08:26:00.835Z,99788.41
2022-11-29T08:29:02.410Z,99785.91
2022-11-29T08:32:04.215Z,99793.91
2022-11-29T08:35:05.860Z,99792.78
2022-11-29T08:38:07.255Z,99794.03
2022-11-29T08:41:11.462Z,99795.38
2022-11-29T08:44:13.044Z,99794.56
2022-11-29T08:47:32.687Z,99800.16
2022-11-29T08:50:34.241Z,99802.94
2022-11-29T08:53:41.461Z,99801.69
2022-11-29T08:57:30.965Z,99809.97
2022-11-29T09:00:05.386Z,99812.03
2022-11-29T09:03:26.250Z,99812.72
2022-11-29T09:06:33.572Z,99812.19
2022-11-29T09:09:34.965Z,99820.28
2022-11-29T09:12:37.210Z,99815.91
2022-11-29T09:15:39.478Z,99821.94
2022-11-29T09:18:43.172Z,99823.72
2022-11-29T09:21:47.496Z,99826.84
2022-11-29T09:24:48.987Z,99827.16
2022-11-29T09:27:50.397Z,99831.84
2022-11-29T09:30:51.771Z,99834.47
2022-11-29T09:33:54.316Z,99844.03
2022-11-29T09:36:55.788Z,99841.88
2022-11-29T09:39:57.221Z,99845.84
2022-11-29T09:43:04.816Z,99854.22
2022-11-29T09:46:18.176Z,99857.81
2022-11-29T09:49:48.291Z,99853.56
2022-11-29T09:53:07.575Z,99853.53
2022-11-29T09:56:21.951Z,99855.72
2022-11-29T09:59:29.031Z,99850.78
2022-11-29T10:02:45.216Z,99859.88
2022-11-29T10:05:52.298Z,99859.59
2022-11-29T10:08:55.971Z,99849.56
2022-11-29T10:12:07.225Z,99858.38
2022-11-29T10:15:14.159Z,99860.81
2022-11-29T10:18:38.396Z,99857.97
2022-11-29T10:21:43.178Z,99861.94
2022-11-29T10:24:51.670Z,99863.19
2022-11-29T10:27:54.344Z,99861.22
2022-11-29T10:30:58.883Z,99857.53
2022-11-29T10:34:07.964Z,99856.28
2022-11-29T10:37:21.840Z,99855.66
2022-11-29T10:40:33.437Z,99851.16
2022-11-29T10:43:37.236Z,99854.94
2022-11-29T10:46:38.800Z,99856.41
2022-11-29T10:49:40.342Z,99856.81
2022-11-29T10:52:41.783Z,99853.13
2022-11-29T10:55:45.546Z,99855.72
2022-11-29T10:59:03.186Z,99852.28
2022-11-29T11:02:06.565Z,99845.28
2022-11-29T11:05:18.655Z,99854.22
2022-11-29T11:08:20.402Z,99844.84
2022-11-29T11:11:31.228Z,99847.34
2022-11-29T11:14:37.464Z,99846.66
2022-11-29T11:17:42.084Z,99844.16
2022-11-29T11:20:51.285Z,99845.28
2022-11-29T11:23:59.493Z,99838.88
2022-11-29T11:27:01.499Z,99842.34
2022-11-29T11:30:06.163Z,99849.03
2022-11-29T11:33:20.049Z,99842.88
2022-11-29T11:36:23.063Z,99843.56
2022-11-29T11:39:27.809Z,99847.19
2022-11-29T11:42:38.265Z,99843.34
2022-11-29T11:45:39.708Z,99850.50
2022-11-29T11:48:42.359Z,99856.66
2022-11-29T11:51:43.978Z,99857.38
2022-11-29T11:54:49.221Z,99856.97
2022-11-29T11:58:12.031Z,99851.63
2022-11-29T12:01:17.244Z,99850.78
2022-11-29T12:04:25.040Z,99859.84
2022-11-29T12:08:06.719Z,99857.66
2022-11-29T12:11:07.699Z,99860.28
2022-11-29T12:14:20.300Z,99854.97
2022-11-29T12:17:21.647Z,99854.69
2022-11-29T12:20:38.656Z,99857.41
2022-11-29T12:23:59.850Z,99860.31
2022-11-29T12:27:05.112Z,99861.56
2022-11-29T12:30:13.593Z,99861.28
2022-11-29T12:33:24.011Z,99861.97
2022-11-29T12:36:46.761Z,99867.34
2022-11-29T12:40:03.533Z,99871.88
2022-11-29T12:43:24.958Z,99866.50
2022-11-29T12:46:29.080Z,99868.97
2022-11-29T12:49:41.169Z,99870.63
2022-11-29T12:53:01.498Z,99871.47
2022-11-29T12:56:13.568Z,99872.03
2022-11-29T12:59:33.227Z,99876.94
2022-11-29T13:02:47.245Z,99878.88
2022-11-29T13:05:59.306Z,99886.72
2022-11-29T13:09:17.954Z,99887.81
2022-11-29T13:12:33.004Z,99883.28
2022-11-29T13:15:57.884Z,99881.34
2022-11-29T13:19:17.828Z,99888.47
2022-11-29T13:22:44.150Z,99898.22
2022-11-29T13:25:50.861Z,99889.00
2022-11-29T13:28:53.493Z,99887.94
2022-11-29T13:31:55.074Z,99884.66
2022-11-29T13:35:01.796Z,99889.06
2022-11-29T13:38:29.528Z,99895.34
2022-11-29T13:41:37.672Z,99893.41
2022-11-29T13:44:58.901Z,99890.59
2022-11-29T13:48:01.901Z,99890.31
2022-11-29T13:51:30.296Z,99890.13
2022-11-29T13:54:33.703Z,99895.38
2022-11-29T13:58:14.453Z,99895.63
2022-11-29T14:01:14.340Z,99909.13
2022-11-29T14:04:28.081Z,99903.06
2022-11-29T14:07:29.527Z,99905.13
2022-11-29T14:10:32.709Z,99907.22
2022-11-29T14:13:54.961Z,99905.53
2022-11-29T14:17:01.672Z,99909.13
2022-11-29T14:20:25.283Z,99918.19
2022-11-29T14:23:33.524Z,99913.53
2022-11-29T14:26:35.103Z,99917.03
2022-11-29T14:30:02.755Z,99908.69
2022-11-29T14:33:18.502Z,99913.50
2022-11-29T14:36:43.597Z,99916.59
2022-11-29T14:39:52.649Z,99915.94
2022-11-29T14:42:54.351Z,99915.06
2022-11-29T14:46:13.777Z,99920.44
2022-11-29T14:49:23.553Z,99922.22
2022-11-29T14:52:29.151Z,99918.41
2022-11-29T14:55:35.246Z,99919.22
2022-11-29T14:58:36.733Z,99924.56
2022-11-29T15:01:43.882Z,99927.44
2022-11-29T15:04:47.892Z,99931.81
2022-11-29T15:08:06.466Z,99934.19
2022-11-29T15:11:26.069Z,99935.56
2022-11-29T15:14:53.888Z,99930.91
2022-11-29T15:18:03.384Z,99936.28
2022-11-29T15:21:32.543Z,99938.81
2022-11-29T15:25:07.103Z,99943.78
2022-11-29T15:28:22.569Z,99941.53
2022-11-29T15:31:24.250Z,99935.41
2022-11-29T15:34:39.729Z,99942.63
2022-11-29T15:37:44.541Z,99944.28
2022-11-29T15:40:52.802Z,99945.28
2022-11-29T15:43:59.802Z,99941.16
2022-11-29T15:47:23.675Z,99950.44
2022-11-29T15:50:34.138Z,99955.81
2022-11-29T15:53:40.975Z,99950.75
2022-11-29T15:56:48.706Z,99964.00
2022-11-29T15:59:55.251Z,99963.72
2022-11-29T16:03:02.029Z,99963.72
2022-11-29T16:06:08.978Z,99964.72
2022-11-29T16:09:22.732Z,99979.81
2022-11-29T16:12:24.525Z,99964.31
2022-11-29T16:15:32.719Z,99967.63
2022-11-29T16:18:34.733Z,99962.66
2022-11-29T16:21:36.290Z,99968.16
2022-11-29T16:24:40.419Z,99973.09
2022-11-29T16:27:42.741Z,99970.50
2022-11-29T16:30:44.092Z,99975.47
2022-11-29T16:33:47.443Z,99972.47
2022-11-29T16:37:01.187Z,99972.81
2022-11-29T16:40:03.094Z,99967.06
2022-11-29T16:43:04.558Z,99978.28
2022-11-29T16:46:30.074Z,99973.34
2022-11-29T16:49:34.964Z,99978.28
2022-11-29T16:52:36.396Z,99984.53
2022-11-29T16:55:37.783Z,99982.75
2022-11-29T16:59:17.068Z,99980.41
2022-11-29T17:02:02.242Z,99984.59
2022-11-29T17:05:03.904Z,99987.94
2022-11-29T17:08:05.603Z,99988.59
2022-11-29T17:11:07.101Z,99992.34
2022-11-29T17:14:09.453Z,99992.59
2022-11-29T17:17:15.654Z,99989.75
2022-11-29T17:20:17.180Z,99987.94
2022-11-29T17:23:18.631Z,99990.09
2022-11-29T17:26:21.880Z,99996.72
2022-11-29T17:29:23.598Z,99987.66
2022-11-29T17:32:26.859Z,99993.66
2022-11-29T17:35:28.629Z,99994.81
2022-11-29T17:38:30.045Z,100001.66
2022-11-29T17:41:32.654Z,99997.34
2022-11-29T17:44:34.247Z,99993.06
2022-11-29T17:47:35.684Z,99995.75
2022-11-29T17:50:38.186Z,100005.25
2022-11-29T17:53:39.615Z,100009.94
2022-11-29T17:56:41.033Z,100007.97
2022-11-29T17:59:42.474Z,100012.56
2022-11-29T18:02:44.053Z,100013.25
2022-11-29T18:05:45.511Z,100017.78
2022-11-29T18:08:49.292Z,100018.34
2022-11-29T18:11:50.888Z,100020.97
2022-11-29T18:14:52.330Z,100018.34
2022-11-29T18:17:53.736Z,100026.03
2022-11-29T18:21:00.106Z,100027.94
2022-11-29T18:24:03.675Z,100019.13
2022-11-29T18:27:05.209Z,100019.00
2022-11-29T18:30:07.415Z,100023.94
2022-11-29T18:33:08.825Z,100023.13
2022-11-29T18:36:13.282Z,100018.63
2022-11-29T18:39:17.365Z,100021.66
2022-11-29T18:42:18.800Z,100026.50
2022-11-29T18:45:20.253Z,100019.88
2022-11-29T18:48:21.766Z,100017.84
2022-11-29T18:51:23.143Z,100023.44
2022-11-29T18:54:24.632Z,100024.41
2022-11-29T18:57:26.046Z,100021.13
2022-11-29T19:00:27.469Z,100027.94
2022-11-29T19:03:29.050Z,100030.22
2022-11-29T19:06:39.295Z,100028.94
2022-11-29T19:09:41.516Z,100029.19
2022-11-29T19:12:42.981Z,100035.94
2022-11-29T19:15:51.395Z,100027.78
2022-11-29T19:18:55.409Z,100037.00
2022-11-29T19:21:56.824Z,100042.88
2022-11-29T19:24:58.284Z,100043.78
2022-11-29T19:27:59.670Z,100033.00
2022-11-29T19:31:01.135Z,100036.06
2022-11-29T19:34:02.578Z,100042.84
2022-11-29T19:37:04.396Z,100045.44
2022-11-29T19:40:06.606Z,100041.09
2022-11-29T19:43:08.042Z,100040.31
2022-11-29T19:46:17.611Z,100041.69
2022-11-29T19:49:19.030Z,100041.50
2022-11-29T19:52:20.455Z,100050.31
2022-11-29T19:55:22.710Z,100042.13
2022-11-29T19:58:25.087Z,100034.88
2022-11-29T20:01:36.088Z,100041.00
2022-11-29T20:04:39.303Z,100040.66
2022-11-29T20:07:40.768Z,100041.56
2022-11-29T20:10:42.206Z,100047.59
2022-11-29T20:13:45.676Z,100049.81
2022-11-29T20:16:47.107Z,100048.97
2022-11-29T20:19:48.849Z,100056.94
2022-11-29T20:22:52.323Z,100051.16
2022-11-29T20:25:55.238Z,100047.88
2022-11-29T20:28:56.709Z,100050.91
2022-11-29T20:31:58.378Z,100046.78
2022-11-29T20:35:02.319Z,100047.59
2022-11-29T20:38:11.634Z,100043.91
2022-11-29T20:41:21.777Z,100051.59
2022-11-29T20:44:54.069Z,100060.66
2022-11-29T20:48:04.307Z,100052.13
2022-11-29T20:51:05.975Z,100059.31
2022-11-29T20:54:10.580Z,100057.50
2022-11-29T20:57:12.088Z,100058.03
2022-11-29T21:00:15.527Z,100059.44
2022-11-29T21:03:18.613Z,100059.44
2022-11-29T21:06:20.491Z,100062.06
2022-11-29T21:09:22.228Z,100063.44
2022-11-29T21:12:24.047Z,100065.00
2022-11-29T21:15:25.870Z,100066.06
2022-11-29T21:18:29.041Z,100069.88
2022-11-29T21:21:40.131Z,100065.47
2022-11-29T21:24:53.194Z,100064.66
2022-11-29T21:27:55.165Z,100066.00
2022-11-29T21:30:56.979Z,100069.25
2022-11-29T21:33:58.792Z,100061.09
2022-11-29T21:37:00.655Z,100070.59
2022-11-29T21:40:02.088Z,100069.22
2022-11-29T21:43:03.508Z,100074.84
2022-11-29T21:46:05.059Z,100071.84
2022-11-29T21:49:06.658Z,100070.50
2022-11-29T21:52:08.066Z,100071.72
2022-11-29T21:55:09.768Z,100070.38
2022-11-29T21:58:11.161Z,100069.47
2022-11-29T22:01:16.861Z,100070.06
2022-11-29T22:04:18.629Z,100072.06
2022-11-29T22:07:20.076Z,100071.78
2022-11-29T22:10:21.508Z,100069.22
2022-11-29T22:13:23.017Z,100073.84
2022-11-29T22:16:25.197Z,100069.91
2022-11-29T22:19:34.620Z,100067.41
2022-11-29T22:22:36.055Z,100065.81
2022-11-29T22:25:37.478Z,100080.63
2022-11-29T22:28:38.863Z,100074.25
2022-11-29T22:31:45.359Z,100081.06
2022-11-29T22:34:47.012Z,100073.53
2022-11-29T22:37:48.556Z,100076.28
2022-11-29T22:40:49.934Z,100068.88
2022-11-29T22:43:51.589Z,100070.25
2022-11-29T22:46:53.224Z,100072.06
2022-11-29T22:49:54.770Z,100071.59
2022-11-29T22:52:56.169Z,100073.13
2022-11-29T22:56:02.428Z,100064.47
2022-11-29T22:59:04.665Z,100067.91
2022-11-29T23:02:06.100Z,100069.59
2022-11-29T23:05:08.021Z,100072.59
2022-11-29T23:08:09.440Z,100074.75
2022-11-29T23:11:17.508Z,100067.75
2022-11-29T23:14:19.779Z,100065.72
2022-11-29T23:17:21.133Z,100069.28
2022-11-29T23:20:22.673Z,100065.63
2022-11-29T23:23:24.243Z,100060.34
2022-11-29T23:26:36.417Z,100068.88
2022-11-29T23:29:37.836Z,100066.16
2022-11-29T23:32:40.764Z,100068.25
2022-11-29T23:35:42.303Z,100071.03
2022-11-29T23:38:44.026Z,100066.75
2022-11-29T23:41:45.449Z,100069.81
2022-11-29T23:44:47.105Z,100070.94
2022-11-29T23:47:48.710Z,100067.16
2022-11-29T23:50:50.124Z,100062.94
2022-11-29T23:53:53.063Z,100062.84
2022-11-29T23:56:54.470Z,100068.25
2022-11-29T23:59:55.862Z,100067.16
